sensor_id;sensor_type;location;lat;lon;timestamp;pressure;altitude;pressure_sealevel;temperature;humidity
50702;BME280;36670;50.094;8.496;2023-05-12T00:00:02;100072.81;;;17.44;64.94
50702;BME280;36670;50.094;8.496;2023-05-12T00:02:28;100073.34;;;17.27;65.74
50702;BME280;36670;50.094;8.496;2023-05-12T00:04:53;100069.31;;;17.52;64.71
50702;BME280;36670;50.094;8.496;2023-05-12T00:07:19;100071.50;;;17.55;64.50
50702;BME280;36670;50.094;8.496;2023-05-12T00:09:44;100069.88;;;17.16;66.25
50702;BME280;36670;50.094;8.496;2023-05-12T00:12:09;100073.06;;;17.28;65.34
50702;BME280;36670;50.094;8.496;2023-05-12T00:14:34;100069.88;;;17.35;65.13
50702;BME280;36670;50.094;8.496;2023-05-12T00:17:00;100072.28;;;17.42;65.43
50702;BME280;36670;50.094;8.496;2023-05-12T00:19:25;100075.94;;;17.56;64.31
50702;BME280;36670;50.094;8.496;2023-05-12T00:21:50;100069.63;;;17.50;64.23
50702;BME280;36670;50.094;8.496;2023-05-12T00:24:15;100073.84;;;17.48;64.91
50702;BME280;36670;50.094;8.496;2023-05-12T00:26:41;100062.69;;;17.48;64.94
50702;BME280;36670;50.094;8.496;2023-05-12T00:29:06;100071.72;;;17.06;66.21
50702;BME280;36670;50.094;8.496;2023-05-12T00:31:31;100069.22;;;17.24;65.32
50702;BME280;36670;50.094;8.496;2023-05-12T00:33:56;100064.25;;;17.02;65.89
50702;BME280;36670;50.094;8.496;2023-05-12T00:36:21;100067.72;;;17.32;65.91
50702;BME280;36670;50.094;8.496;2023-05-12T00:38:47;100064.34;;;17.49;65.44
50702;BME280;36670;50.094;8.496;2023-05-12T00:41:12;100059.81;;;17.53;64.36
50702;BME280;36670;50.094;8.496;2023-05-12T00:43:37;100060.00;;;17.43;64.87
50702;BME280;36670;50.094;8.496;2023-05-12T00:46:03;100067.50;;;17.09;65.42
50702;BME280;36670;50.094;8.496;2023-05-12T00:48:29;100064.72;;;17.09;66.25
50702;BME280;36670;50.094;8.496;2023-05-12T00:50:54;100064.03;;;16.98;66.31
50702;BME280;36670;50.094;8.496;2023-05-12T00:53:20;100058.97;;;17.00;66.69
50702;BME280;36670;50.094;8.496;2023-05-12T00:55:45;100059.41;;;17.27;66.02
50702;BME280;36670;50.094;8.496;2023-05-12T00:58:10;100057.50;;;17.41;65.29
50702;BME280;36670;50.094;8.496;2023-05-12T01:00:36;100042.72;;;17.40;65.11
50702;BME280;36670;50.094;8.496;2023-05-12T01:03:01;100054.84;;;17.50;64.64
50702;BME280;36670;50.094;8.496;2023-05-12T01:05:28;100049.13;;;17.41;65.12
50702;BME280;36670;50.094;8.496;2023-05-12T01:07:54;100049.47;;;17.01;66.34
50702;BME280;36670;50.094;8.496;2023-05-12T01:10:20;100052.44;;;16.91;66.59
50702;BME280;36670;50.094;8.496;2023-05-12T01:12:45;100050.56;;;16.62;66.90
50702;BME280;36670;50.094;8.496;2023-05-12T01:15:11;100052.50;;;16.43;67.87
50702;BME280;36670;50.094;8.496;2023-05-12T01:17:36;100055.88;;;16.40;67.84
50702;BME280;36670;50.094;8.496;2023-05-12T01:20:04;100053.56;;;16.90;67.25
50702;BME280;36670;50.094;8.496;2023-05-12T01:22:30;100053.66;;;16.36;68.44
50702;BME280;36670;50.094;8.496;2023-05-12T01:24:58;100057.53;;;16.16;68.86
50702;BME280;36670;50.094;8.496;2023-05-12T01:27:23;100053.25;;;16.00;69.38
50702;BME280;36670;50.094;8.496;2023-05-12T01:29:50;100053.84;;;16.21;69.51
50702;BME280;36670;50.094;8.496;2023-05-12T01:32:15;100056.47;;;16.36;68.63
50702;BME280;36670;50.094;8.496;2023-05-12T01:34:41;100051.38;;;16.19;69.01
50702;BME280;36670;50.094;8.496;2023-05-12T01:37:07;100058.13;;;16.37;69.07
50702;BME280;36670;50.094;8.496;2023-05-12T01:39:32;100057.19;;;16.23;68.90
50702;BME280;36670;50.094;8.496;2023-05-12T01:41:57;100062.09;;;16.07;69.17
50702;BME280;36670;50.094;8.496;2023-05-12T01:44:23;100057.72;;;16.01;69.84
50702;BME280;36670;50.094;8.496;2023-05-12T01:46:48;100059.50;;;16.16;69.48
50702;BME280;36670;50.094;8.496;2023-05-12T01:49:13;100074.38;;;16.06;69.42
50702;BME280;36670;50.094;8.496;2023-05-12T01:51:38;100071.41;;;16.21;68.95
50702;BME280;36670;50.094;8.496;2023-05-12T01:54:03;100078.19;;;15.86;69.46
50702;BME280;36670;50.094;8.496;2023-05-12T01:56:29;100079.19;;;15.66;70.61
50702;BME280;36670;50.094;8.496;2023-05-12T01:58:54;100081.34;;;15.74;70.71
50702;BME280;36670;50.094;8.496;2023-05-12T02:01:19;100076.84;;;15.78;71.05
50702;BME280;36670;50.094;8.496;2023-05-12T02:03:44;100084.66;;;15.76;70.56
50702;BME280;36670;50.094;8.496;2023-05-12T02:06:09;100080.97;;;15.86;70.55
50702;BME280;36670;50.094;8.496;2023-05-12T02:08:34;100087.66;;;15.85;70.49
50702;BME280;36670;50.094;8.496;2023-05-12T02:11:03;100092.22;;;15.70;70.89
50702;BME280;36670;50.094;8.496;2023-05-12T02:13:29;100097.00;;;15.99;70.10
50702;BME280;36670;50.094;8.496;2023-05-12T02:15:54;100095.44;;;15.88;70.76
50702;BME280;36670;50.094;8.496;2023-05-12T02:18:19;100096.44;;;15.97;70.20
50702;BME280;36670;50.094;8.496;2023-05-12T02:20:45;100095.72;;;15.86;70.45
50702;BME280;36670;50.094;8.496;2023-05-12T02:23:10;100095.31;;;15.69;70.95
50702;BME280;36670;50.094;8.496;2023-05-12T02:25:35;100099.38;;;15.82;70.44
50702;BME280;36670;50.094;8.496;2023-05-12T02:28:00;100102.16;;;16.11;70.20
50702;BME280;36670;50.094;8.496;2023-05-12T02:30:25;100105.50;;;16.13;70.15
50702;BME280;36670;50.094;8.496;2023-05-12T02:32:51;100109.38;;;15.88;70.73
50702;BME280;36670;50.094;8.496;2023-05-12T02:35:16;100103.50;;;15.90;70.29
50702;BME280;36670;50.094;8.496;2023-05-12T02:37:41;100096.72;;;16.25;69.42
50702;BME280;36670;50.094;8.496;2023-05-12T02:40:06;100096.41;;;16.27;69.38
50702;BME280;36670;50.094;8.496;2023-05-12T02:42:32;100098.31;;;16.55;68.84
50702;BME280;36670;50.094;8.496;2023-05-12T02:44:59;100095.88;;;16.73;68.02
50702;BME280;36670;50.094;8.496;2023-05-12T02:47:24;100101.66;;;16.77;67.96
50702;BME280;36670;50.094;8.496;2023-05-12T02:49:49;100107.44;;;16.61;67.74
50702;BME280;36670;50.094;8.496;2023-05-12T02:52:15;100098.56;;;16.59;67.93
50702;BME280;36670;50.094;8.496;2023-05-12T02:54:40;100100.44;;;16.64;67.82
50702;BME280;36670;50.094;8.496;2023-05-12T02:57:05;100103.41;;;16.48;68.47
50702;BME280;36670;50.094;8.496;2023-05-12T02:59:30;100105.75;;;16.60;68.47
50702;BME280;36670;50.094;8.496;2023-05-12T03:01:56;100104.38;;;16.82;67.75
50702;BME280;36670;50.094;8.496;2023-05-12T03:04:21;100103.47;;;16.86;67.26
50702;BME280;36670;50.094;8.496;2023-05-12T03:06:46;100109.03;;;16.67;67.40
50702;BME280;36670;50.094;8.496;2023-05-12T03:09:11;100109.81;;;16.49;68.02
50702;BME280;36670;50.094;8.496;2023-05-12T03:11:37;100099.41;;;16.35;68.92
50702;BME280;36670;50.094;8.496;2023-05-12T03:14:02;100117.41;;;16.19;68.07
50702;BME280;36670;50.094;8.496;2023-05-12T03:16:27;100114.88;;;15.93;69.39
50702;BME280;36670;50.094;8.496;2023-05-12T03:18:52;100114.78;;;15.69;70.85
50702;BME280;36670;50.094;8.496;2023-05-12T03:21:18;100120.41;;;15.59;70.59
50702;BME280;36670;50.094;8.496;2023-05-12T03:23:43;100115.59;;;15.69;69.86
50702;BME280;36670;50.094;8.496;2023-05-12T03:26:08;100116.97;;;15.72;69.79
50702;BME280;36670;50.094;8.496;2023-05-12T03:28:33;100113.81;;;15.55;69.98
50702;BME280;36670;50.094;8.496;2023-05-12T03:30:58;100124.81;;;15.30;70.64
50702;BME280;36670;50.094;8.496;2023-05-12T03:33:23;100123.03;;;15.05;71.96
50702;BME280;36670;50.094;8.496;2023-05-12T03:35:49;100120.97;;;15.21;70.47
50702;BME280;36670;50.094;8.496;2023-05-12T03:38:14;100125.41;;;15.22;70.53
50702;BME280;36670;50.094;8.496;2023-05-12T03:40:39;100125.97;;;15.24;71.49
50702;BME280;36670;50.094;8.496;2023-05-12T03:43:04;100124.78;;;15.35;70.68
50702;BME280;36670;50.094;8.496;2023-05-12T03:45:29;100120.06;;;15.31;70.88
50702;BME280;36670;50.094;8.496;2023-05-12T03:47:54;100130.06;;;15.37;70.09
50702;BME280;36670;50.094;8.496;2023-05-12T03:50:20;100131.19;;;15.31;71.36
50702;BME280;36670;50.094;8.496;2023-05-12T03:52:45;100124.59;;;15.22;70.74
50702;BME280;36670;50.094;8.496;2023-05-12T03:55:10;100123.25;;;15.14;71.27
50702;BME280;36670;50.094;8.496;2023-05-12T03:57:35;100121.13;;;15.40;70.32
50702;BME280;36670;50.094;8.496;2023-05-12T04:00:02;100123.84;;;15.06;72.25
50702;BME280;36670;50.094;8.496;2023-05-12T04:02:28;100125.09;;;15.29;70.95
50702;BME280;36670;50.094;8.496;2023-05-12T04:04:53;100122.06;;;15.25;71.38
50702;BME280;36670;50.094;8.496;2023-05-12T04:07:18;100125.28;;;15.43;70.94
50702;BME280;36670;50.094;8.496;2023-05-12T04:09:43;100121.78;;;15.61;70.17
50702;BME280;36670;50.094;8.496;2023-05-12T04:12:09;100129.25;;;15.31;70.51
50702;BME280;36670;50.094;8.496;2023-05-12T04:14:34;100126.66;;;15.45;70.83
50702;BME280;36670;50.094;8.496;2023-05-12T04:16:59;100127.22;;;14.97;71.92
50702;BME280;36670;50.094;8.496;2023-05-12T04:19:24;100122.25;;;14.94;71.70
50702;BME280;36670;50.094;8.496;2023-05-12T04:21:49;100122.66;;;15.17;71.35
50702;BME280;36670;50.094;8.496;2023-05-12T04:24:14;100129.75;;;15.39;70.74
50702;BME280;36670;50.094;8.496;2023-05-12T04:26:40;100135.69;;;15.27;70.76
50702;BME280;36670;50.094;8.496;2023-05-12T04:29:05;100128.59;;;15.00;72.26
50702;BME280;36670;50.094;8.496;2023-05-12T04:31:30;100130.59;;;14.94;72.23
50702;BME280;36670;50.094;8.496;2023-05-12T04:33:55;100136.94;;;15.00;72.14
50702;BME280;36670;50.094;8.496;2023-05-12T04:36:21;100135.97;;;14.75;73.05
50702;BME280;36670;50.094;8.496;2023-05-12T04:38:46;100138.13;;;14.83;72.94
50702;BME280;36670;50.094;8.496;2023-05-12T04:41:11;100145.19;;;15.21;72.08
50702;BME280;36670;50.094;8.496;2023-05-12T04:43:37;100135.94;;;14.80;73.16
50702;BME280;36670;50.094;8.496;2023-05-12T04:46:02;100133.66;;;14.88;73.64
50702;BME280;36670;50.094;8.496;2023-05-12T04:48:27;100145.56;;;15.04;72.93
50702;BME280;36670;50.094;8.496;2023-05-12T04:50:57;100144.03;;;14.77;73.26
50702;BME280;36670;50.094;8.496;2023-05-12T04:53:22;100148.22;;;14.64;74.26
50702;BME280;36670;50.094;8.496;2023-05-12T04:55:47;100152.38;;;14.72;73.24
50702;BME280;36670;50.094;8.496;2023-05-12T04:58:13;100159.25;;;14.95;72.63
50702;BME280;36670;50.094;8.496;2023-05-12T05:00:40;100158.38;;;14.94;72.42
50702;BME280;36670;50.094;8.496;2023-05-12T05:03:05;100154.91;;;14.63;74.19
50702;BME280;36670;50.094;8.496;2023-05-12T05:05:30;100164.53;;;14.86;72.81
50702;BME280;36670;50.094;8.496;2023-05-12T05:07:55;100166.31;;;14.51;75.07
50702;BME280;36670;50.094;8.496;2023-05-12T05:10:21;100164.88;;;14.69;74.17
50702;BME280;36670;50.094;8.496;2023-05-12T05:12:46;100169.34;;;14.70;74.77
50702;BME280;36670;50.094;8.496;2023-05-12T05:15:12;100175.94;;;14.79;73.92
50702;BME280;36670;50.094;8.496;2023-05-12T05:17:37;100162.22;;;15.09;73.50
50702;BME280;36670;50.094;8.496;2023-05-12T05:20:03;100169.75;;;15.03;72.73
50702;BME280;36670;50.094;8.496;2023-05-12T05:22:28;100172.53;;;15.03;73.29
50702;BME280;36670;50.094;8.496;2023-05-12T05:24:53;100180.00;;;15.13;72.43
50702;BME280;36670;50.094;8.496;2023-05-12T05:27:19;100179.31;;;15.31;72.67
50702;BME280;36670;50.094;8.496;2023-05-12T05:29:44;100179.44;;;15.06;73.60
50702;BME280;36670;50.094;8.496;2023-05-12T05:32:09;100193.34;;;15.11;73.27
50702;BME280;36670;50.094;8.496;2023-05-12T05:34:35;100190.84;;;15.09;73.21
50702;BME280;36670;50.094;8.496;2023-05-12T05:37:00;100187.72;;;15.21;72.99
50702;BME280;36670;50.094;8.496;2023-05-12T05:39:25;100184.59;;;15.33;72.27
50702;BME280;36670;50.094;8.496;2023-05-12T05:41:54;100190.50;;;15.21;73.59
50702;BME280;36670;50.094;8.496;2023-05-12T05:44:20;100188.97;;;14.94;74.18
50702;BME280;36670;50.094;8.496;2023-05-12T05:46:45;100190.88;;;15.04;73.26
50702;BME280;36670;50.094;8.496;2023-05-12T05:49:10;100195.59;;;15.09;73.22
50702;BME280;36670;50.094;8.496;2023-05-12T05:51:35;100197.19;;;15.20;71.91
50702;BME280;36670;50.094;8.496;2023-05-12T05:54:00;100194.22;;;15.06;73.07
50702;BME280;36670;50.094;8.496;2023-05-12T05:56:25;100204.97;;;15.18;71.91
50702;BME280;36670;50.094;8.496;2023-05-12T05:58:51;100206.22;;;14.91;72.35
50702;BME280;36670;50.094;8.496;2023-05-12T06:01:16;100212.38;;;14.83;72.84
50702;BME280;36670;50.094;8.496;2023-05-12T06:03:41;100221.28;;;14.75;73.36
50702;BME280;36670;50.094;8.496;2023-05-12T06:06:06;100212.34;;;14.88;72.42
50702;BME280;36670;50.094;8.496;2023-05-12T06:08:31;100216.00;;;14.78;72.76
50702;BME280;36670;50.094;8.496;2023-05-12T06:10:57;100216.28;;;14.77;72.87
50702;BME280;36670;50.094;8.496;2023-05-12T06:13:23;100225.09;;;14.99;72.56
50702;BME280;36670;50.094;8.496;2023-05-12T06:15:48;100225.16;;;14.79;73.67
50702;BME280;36670;50.094;8.496;2023-05-12T06:18:13;100232.84;;;15.08;72.83
50702;BME280;36670;50.094;8.496;2023-05-12T06:20:38;100239.28;;;14.88;73.69
50702;BME280;36670;50.094;8.496;2023-05-12T06:23:03;100229.97;;;15.28;72.40
50702;BME280;36670;50.094;8.496;2023-05-12T06:25:29;100241.19;;;15.02;72.91
50702;BME280;36670;50.094;8.496;2023-05-12T06:27:56;100237.75;;;15.31;72.50
50702;BME280;36670;50.094;8.496;2023-05-12T06:30:22;100232.41;;;15.35;72.14
50702;BME280;36670;50.094;8.496;2023-05-12T06:32:47;100238.59;;;15.27;71.59
50702;BME280;36670;50.094;8.496;2023-05-12T06:35:12;100238.28;;;15.33;72.19
50702;BME280;36670;50.094;8.496;2023-05-12T06:37:37;100251.66;;;15.31;71.78
50702;BME280;36670;50.094;8.496;2023-05-12T06:40:03;100244.91;;;15.43;71.37
50702;BME280;36670;50.094;8.496;2023-05-12T06:42:28;100247.63;;;15.53;70.72
50702;BME280;36670;50.094;8.496;2023-05-12T06:44:53;100246.94;;;15.27;71.84
50702;BME280;36670;50.094;8.496;2023-05-12T06:47:18;100255.81;;;15.34;71.94
50702;BME280;36670;50.094;8.496;2023-05-12T06:49:43;100253.34;;;15.22;72.13
50702;BME280;36670;50.094;8.496;2023-05-12T06:52:09;100253.63;;;15.26;72.29
50702;BME280;36670;50.094;8.496;2023-05-12T06:54:34;100256.91;;;15.33;72.01
50702;BME280;36670;50.094;8.496;2023-05-12T06:56:59;100253.47;;;15.51;71.25
50702;BME280;36670;50.094;8.496;2023-05-12T06:59:24;100258.59;;;15.29;72.26
50702;BME280;36670;50.094;8.496;2023-05-12T07:01:50;100266.84;;;15.55;71.53
50702;BME280;36670;50.094;8.496;2023-05-12T07:04:15;100257.09;;;15.52;72.33
50702;BME280;36670;50.094;8.496;2023-05-12T07:06:40;100261.81;;;15.57;71.85
50702;BME280;36670;50.094;8.496;2023-05-12T07:09:05;100262.25;;;15.74;70.82
50702;BME280;36670;50.094;8.496;2023-05-12T07:11:31;100261.88;;;15.41;70.86
50702;BME280;36670;50.094;8.496;2023-05-12T07:13:56;100256.84;;;15.43;71.56
50702;BME280;36670;50.094;8.496;2023-05-12T07:16:21;100259.41;;;15.34;70.81
50702;BME280;36670;50.094;8.496;2023-05-12T07:18:46;100254.06;;;15.48;70.74
50702;BME280;36670;50.094;8.496;2023-05-12T07:21:11;100259.34;;;15.45;71.81
50702;BME280;36670;50.094;8.496;2023-05-12T07:23:37;100255.53;;;15.35;71.59
50702;BME280;36670;50.094;8.496;2023-05-12T07:26:03;100259.88;;;15.52;70.50
50702;BME280;36670;50.094;8.496;2023-05-12T07:28:29;100253.03;;;15.84;70.36
50702;BME280;36670;50.094;8.496;2023-05-12T07:30:56;100264.84;;;15.60;71.11
50702;BME280;36670;50.094;8.496;2023-05-12T07:33:21;100262.63;;;15.57;71.55
50702;BME280;36670;50.094;8.496;2023-05-12T07:35:46;100261.72;;;15.67;70.45
50702;BME280;36670;50.094;8.496;2023-05-12T07:38:12;100267.06;;;15.63;69.89
50702;BME280;36670;50.094;8.496;2023-05-12T07:40:37;100258.16;;;15.61;70.07
50702;BME280;36670;50.094;8.496;2023-05-12T07:43:02;100271.34;;;15.40;71.20
50702;BME280;36670;50.094;8.496;2023-05-12T07:45:27;100264.84;;;15.60;70.86
50702;BME280;36670;50.094;8.496;2023-05-12T07:47:52;100263.81;;;15.91;68.81
50702;BME280;36670;50.094;8.496;2023-05-12T07:50:17;100267.38;;;16.01;68.95
50702;BME280;36670;50.094;8.496;2023-05-12T07:52:49;100266.06;;;15.94;69.38
50702;BME280;36670;50.094;8.496;2023-05-12T07:55:15;100268.38;;;15.81;69.24
50702;BME280;36670;50.094;8.496;2023-05-12T07:57:40;100268.91;;;15.78;70.34
50702;BME280;36670;50.094;8.496;2023-05-12T08:00:06;100269.94;;;15.98;69.12
50702;BME280;36670;50.094;8.496;2023-05-12T08:02:31;100270.94;;;16.07;69.26
50702;BME280;36670;50.094;8.496;2023-05-12T08:04:56;100260.13;;;16.00;69.32
50702;BME280;36670;50.094;8.496;2023-05-12T08:07:22;100268.06;;;15.88;69.85
50702;BME280;36670;50.094;8.496;2023-05-12T08:09:47;100259.81;;;15.62;71.20
50702;BME280;36670;50.094;8.496;2023-05-12T08:12:12;100262.00;;;15.70;70.24
50702;BME280;36670;50.094;8.496;2023-05-12T08:14:37;100265.66;;;16.11;70.13
50702;BME280;36670;50.094;8.496;2023-05-12T08:17:02;100255.09;;;16.08;69.10
50702;BME280;36670;50.094;8.496;2023-05-12T08:19:28;100263.03;;;15.85;70.58
50702;BME280;36670;50.094;8.496;2023-05-12T08:21:54;100258.78;;;15.98;69.92
50702;BME280;36670;50.094;8.496;2023-05-12T08:24:19;100260.59;;;16.13;69.55
50702;BME280;36670;50.094;8.496;2023-05-12T08:26:45;100261.47;;;16.43;69.34
50702;BME280;36670;50.094;8.496;2023-05-12T08:29:10;100267.41;;;16.60;68.08
50702;BME280;36670;50.094;8.496;2023-05-12T08:31:36;100257.78;;;16.47;68.76
50702;BME280;36670;50.094;8.496;2023-05-12T08:34:01;100263.91;;;16.79;67.06
50702;BME280;36670;50.094;8.496;2023-05-12T08:36:27;100264.94;;;16.59;67.85
50702;BME280;36670;50.094;8.496;2023-05-12T08:38:52;100264.63;;;16.60;68.03
50702;BME280;36670;50.094;8.496;2023-05-12T08:41:22;100263.25;;;16.87;66.48
50702;BME280;36670;50.094;8.496;2023-05-12T08:43:49;100261.75;;;17.00;66.92
50702;BME280;36670;50.094;8.496;2023-05-12T08:46:15;100266.06;;;17.11;65.78
50702;BME280;36670;50.094;8.496;2023-05-12T08:48:40;100264.59;;;16.95;66.47
50702;BME280;36670;50.094;8.496;2023-05-12T08:51:06;100263.25;;;16.87;67.21
50702;BME280;36670;50.094;8.496;2023-05-12T08:53:37;100268.38;;;17.04;66.16
50702;BME280;36670;50.094;8.496;2023-05-12T08:56:04;100263.31;;;16.82;66.37
50702;BME280;36670;50.094;8.496;2023-05-12T08:58:30;100277.69;;;16.94;65.71
50702;BME280;36670;50.094;8.496;2023-05-12T09:00:55;100269.63;;;16.93;66.16
50702;BME280;36670;50.094;8.496;2023-05-12T09:03:21;100263.13;;;17.02;65.96
50702;BME280;36670;50.094;8.496;2023-05-12T09:05:47;100263.34;;;16.77;66.42
50702;BME280;36670;50.094;8.496;2023-05-12T09:08:12;100262.66;;;16.95;66.28
50702;BME280;36670;50.094;8.496;2023-05-12T09:10:37;100258.59;;;17.06;65.62
50702;BME280;36670;50.094;8.496;2023-05-12T09:13:47;100255.84;;;17.26;64.51
50702;BME280;36670;50.094;8.496;2023-05-12T09:15:51;100260.34;;;17.21;63.22
50702;BME280;36670;50.094;8.496;2023-05-12T09:18:20;100265.25;;;17.11;64.28
50702;BME280;36670;50.094;8.496;2023-05-12T09:20:45;100252.84;;;17.41;64.04
50702;BME280;36670;50.094;8.496;2023-05-12T09:23:12;100252.78;;;17.46;62.93
50702;BME280;36670;50.094;8.496;2023-05-12T09:25:37;100254.28;;;17.38;62.60
50702;BME280;36670;50.094;8.496;2023-05-12T09:28:02;100254.50;;;17.23;63.22
50702;BME280;36670;50.094;8.496;2023-05-12T09:30:30;100255.25;;;17.48;62.26
50702;BME280;36670;50.094;8.496;2023-05-12T09:33:17;100249.28;;;17.35;62.14
50702;BME280;36670;50.094;8.496;2023-05-12T09:35:42;100245.63;;;17.59;61.95
50702;BME280;36670;50.094;8.496;2023-05-12T09:38:10;100251.00;;;17.31;61.03
50702;BME280;36670;50.094;8.496;2023-05-12T09:40:35;100244.34;;;17.51;60.96
50702;BME280;36670;50.094;8.496;2023-05-12T09:43:01;100245.34;;;17.61;61.30
50702;BME280;36670;50.094;8.496;2023-05-12T09:45:26;100248.69;;;18.48;60.89
50702;BME280;36670;50.094;8.496;2023-05-12T09:47:51;100239.22;;;18.76;58.65
50702;BME280;36670;50.094;8.496;2023-05-12T09:50:17;100239.78;;;19.06;60.39
50702;BME280;36670;50.094;8.496;2023-05-12T09:52:43;100234.34;;;19.52;56.64
50702;BME280;36670;50.094;8.496;2023-05-12T09:55:09;100236.22;;;19.28;55.51
50702;BME280;36670;50.094;8.496;2023-05-12T09:57:38;100242.34;;;19.44;56.17
50702;BME280;36670;50.094;8.496;2023-05-12T10:00:05;100237.38;;;19.00;56.86
50702;BME280;36670;50.094;8.496;2023-05-12T10:02:32;100252.94;;;19.06;57.60
50702;BME280;36670;50.094;8.496;2023-05-12T10:04:59;100241.59;;;19.53;57.47
50702;BME280;36670;50.094;8.496;2023-05-12T10:07:24;100236.78;;;19.67;55.92
50702;BME280;36670;50.094;8.496;2023-05-12T10:09:51;100239.72;;;19.48;55.56
50702;BME280;36670;50.094;8.496;2023-05-12T10:12:19;100240.50;;;18.98;56.45
50702;BME280;36670;50.094;8.496;2023-05-12T10:14:44;100246.06;;;18.23;57.60
50702;BME280;36670;50.094;8.496;2023-05-12T10:17:10;100241.81;;;18.26;58.01
50702;BME280;36670;50.094;8.496;2023-05-12T10:19:36;100245.09;;;18.14;57.81
50702;BME280;36670;50.094;8.496;2023-05-12T10:22:02;100240.72;;;18.08;58.24
50702;BME280;36670;50.094;8.496;2023-05-12T10:24:27;100243.41;;;18.13;58.17
50702;BME280;36670;50.094;8.496;2023-05-12T10:26:53;100238.03;;;18.36;58.13
50702;BME280;36670;50.094;8.496;2023-05-12T10:29:20;100233.47;;;18.07;58.55
50702;BME280;36670;50.094;8.496;2023-05-12T10:31:46;100232.41;;;17.84;59.84
50702;BME280;36670;50.094;8.496;2023-05-12T10:34:15;100231.19;;;18.09;59.89
50702;BME280;36670;50.094;8.496;2023-05-12T10:36:47;100232.28;;;18.27;59.16
50702;BME280;36670;50.094;8.496;2023-05-12T10:39:13;100222.78;;;18.28;58.54
50702;BME280;36670;50.094;8.496;2023-05-12T10:41:39;100226.59;;;18.65;58.75
50702;BME280;36670;50.094;8.496;2023-05-12T10:44:04;100235.44;;;19.00;57.30
50702;BME280;36670;50.094;8.496;2023-05-12T10:46:30;100225.44;;;19.22;57.29
50702;BME280;36670;50.094;8.496;2023-05-12T10:51:21;100231.69;;;19.05;57.90
50702;BME280;36670;50.094;8.496;2023-05-12T10:53:50;100228.44;;;18.84;58.21
50702;BME280;36670;50.094;8.496;2023-05-12T10:56:20;100231.41;;;18.46;59.32
50702;BME280;36670;50.094;8.496;2023-05-12T10:59:10;100235.13;;;17.89;61.11
50702;BME280;36670;50.094;8.496;2023-05-12T11:01:36;100229.47;;;17.75;61.09
50702;BME280;36670;50.094;8.496;2023-05-12T11:04:14;100253.63;;;17.66;62.19
50702;BME280;36670;50.094;8.496;2023-05-12T11:06:40;100244.44;;;17.65;61.58
50702;BME280;36670;50.094;8.496;2023-05-12T11:09:06;100250.53;;;17.48;62.55
50702;BME280;36670;50.094;8.496;2023-05-12T11:11:31;100258.75;;;17.58;62.18
50702;BME280;36670;50.094;8.496;2023-05-12T11:13:56;100249.78;;;17.43;61.53
50702;BME280;36670;50.094;8.496;2023-05-12T11:16:22;100265.06;;;17.45;62.35
50702;BME280;36670;50.094;8.496;2023-05-12T11:18:48;100254.53;;;17.61;62.07
50702;BME280;36670;50.094;8.496;2023-05-12T11:21:15;100250.69;;;17.57;62.25
50702;BME280;36670;50.094;8.496;2023-05-12T11:23:40;100253.31;;;17.48;63.50
50702;BME280;36670;50.094;8.496;2023-05-12T11:26:15;100264.19;;;17.88;62.11
50702;BME280;36670;50.094;8.496;2023-05-12T11:28:40;100263.72;;;17.62;63.29
50702;BME280;36670;50.094;8.496;2023-05-12T11:31:05;100264.78;;;17.66;62.95
50702;BME280;36670;50.094;8.496;2023-05-12T11:33:31;100262.22;;;17.69;63.11
50702;BME280;36670;50.094;8.496;2023-05-12T11:35:56;100274.50;;;17.93;62.96
50702;BME280;36670;50.094;8.496;2023-05-12T11:38:21;100272.53;;;17.93;63.35
50702;BME280;36670;50.094;8.496;2023-05-12T11:40:48;100262.16;;;18.13;63.63
50702;BME280;36670;50.094;8.496;2023-05-12T11:43:13;100267.09;;;18.82;62.91
50702;BME280;36670;50.094;8.496;2023-05-12T11:45:43;100256.97;;;19.00;62.18
50702;BME280;36670;50.094;8.496;2023-05-12T11:48:09;100266.91;;;19.34;61.89
50702;BME280;36670;50.094;8.496;2023-05-12T11:50:36;100250.13;;;18.92;61.96
50702;BME280;36670;50.094;8.496;2023-05-12T11:53:02;100267.66;;;19.12;61.94
50702;BME280;36670;50.094;8.496;2023-05-12T11:55:27;100264.13;;;19.20;61.09
50702;BME280;36670;50.094;8.496;2023-05-12T11:57:59;100277.72;;;19.13;62.73
50702;BME280;36670;50.094;8.496;2023-05-12T12:00:26;100269.91;;;19.51;62.53
50702;BME280;36670;50.094;8.496;2023-05-12T12:02:51;100278.72;;;19.44;62.20
50702;BME280;36670;50.094;8.496;2023-05-12T12:05:17;100282.84;;;19.61;60.97
50702;BME280;36670;50.094;8.496;2023-05-12T12:07:42;100281.69;;;19.62;61.68
50702;BME280;36670;50.094;8.496;2023-05-12T12:12:36;100278.81;;;19.53;62.06
50702;BME280;36670;50.094;8.496;2023-05-12T12:15:02;100279.09;;;19.66;61.87
50702;BME280;36670;50.094;8.496;2023-05-12T12:17:27;100284.91;;;19.55;62.92
50702;BME280;36670;50.094;8.496;2023-05-12T12:19:55;100294.78;;;19.67;62.43
50702;BME280;36670;50.094;8.496;2023-05-12T12:22:20;100309.72;;;19.06;61.96
50702;BME280;36670;50.094;8.496;2023-05-12T12:24:46;100296.25;;;18.95;61.95
50702;BME280;36670;50.094;8.496;2023-05-12T12:27:11;100301.06;;;18.75;57.02
50702;BME280;36670;50.094;8.496;2023-05-12T12:29:36;100301.06;;;18.75;58.50
50702;BME280;36670;50.094;8.496;2023-05-12T12:32:01;100302.31;;;18.83;57.73
50702;BME280;36670;50.094;8.496;2023-05-12T12:34:26;100306.41;;;19.04;58.38
50702;BME280;36670;50.094;8.496;2023-05-12T12:36:51;100300.81;;;19.18;57.75
50702;BME280;36670;50.094;8.496;2023-05-12T12:39:17;100316.47;;;19.05;57.54
50702;BME280;36670;50.094;8.496;2023-05-12T12:41:42;100305.56;;;19.18;57.57
50702;BME280;36670;50.094;8.496;2023-05-12T12:44:08;100301.44;;;19.43;58.13
50702;BME280;36670;50.094;8.496;2023-05-12T12:46:33;100299.22;;;19.54;58.52